Time;durP1;ratioP1;P1;durP2;ratioP2;P2;SDS_P1;SDS_P2;PMS_P1;PMS_P2;Temp;Humidity;BMP_temperature;BMP_pressure;BME280_temperature;BME280_humidity;BME280_pressure;Samples;Min_cycle;Max_cycle;Signal;HPM_P1;HPM_P2
2022/10/09 00:01:09;;;;;;;8.70;6.82;;;11.20;99.90;;;;;;6289257;22;20559;-66
2022/10/09 00:03:36;;;;;;;8.10;7.30;;;11.20;99.90;;;;;;6292496;22;20082;-66
2022/10/09 00:06:02;;;;;;;10.35;8.23;;;11.20;99.90;;;;;;6293690;22;19996;-66
2022/10/09 00:08:28;;;;;;;10.65;7.50;;;11.10;99.90;;;;;;6293969;22;20008;-66
2022/10/09 00:10:54;;;;;;;15.05;9.80;;;11.10;99.90;;;;;;6295282;22;20007;-66
2022/10/09 00:13:20;;;;;;;12.18;8.68;;;11.10;99.90;;;;;;6294793;22;19999;-66
2022/10/09 00:15:46;;;;;;;9.40;7.90;;;11.10;99.90;;;;;;6293592;22;20034;-66
2022/10/09 00:18:13;;;;;;;9.43;7.72;;;11.20;99.90;;;;;;6294510;22;20503;-80
2022/10/09 00:20:42;;;;;;;10.25;7.05;;;11.20;99.90;;;;;;6293569;22;20434;-76
2022/10/09 00:23:09;;;;;;;10.35;8.05;;;11.20;99.90;;;;;;6293705;22;19999;-77
2022/10/09 00:25:34;;;;;;;9.60;7.95;;;11.20;99.90;;;;;;6295272;22;19995;-77
2022/10/09 00:28:01;;;;;;;9.40;8.30;;;11.10;99.90;;;;;;6293504;22;20022;-77
2022/10/09 00:30:26;;;;;;;12.85;9.60;;;11.10;99.90;;;;;;6291800;22;20007;-77
2022/10/09 00:32:52;;;;;;;11.88;9.27;;;11.10;99.90;;;;;;6294706;22;20659;-77
2022/10/09 00:35:18;;;;;;;12.05;8.30;;;11.10;99.90;;;;;;6295693;22;19999;-77
2022/10/09 00:37:44;;;;;;;8.90;7.68;;;11.10;99.90;;;;;;6291659;22;20003;-77
2022/10/09 00:40:09;;;;;;;10.00;8.30;;;11.10;99.90;;;;;;6292433;22;20074;-77
2022/10/09 00:42:35;;;;;;;12.45;8.18;;;11.10;99.90;;;;;;6293990;22;20006;-77
2022/10/09 00:45:01;;;;;;;8.85;7.95;;;11.10;99.90;;;;;;6295417;22;20029;-76
2022/10/09 00:47:27;;;;;;;8.68;7.13;;;11.20;99.90;;;;;;6294013;22;20003;-77
2022/10/09 00:50:01;;;;;;;7.97;7.15;;;11.20;99.90;;;;;;6293269;22;20042;-76
2022/10/09 00:52:27;;;;;;;9.48;7.53;;;11.20;99.90;;;;;;6291992;22;19999;-77
2022/10/09 00:54:53;;;;;;;9.15;7.43;;;11.20;99.90;;;;;;6292883;22;20321;-77
2022/10/09 00:57:19;;;;;;;10.90;7.22;;;11.20;99.90;;;;;;6292729;22;20435;-77
2022/10/09 00:59:45;;;;;;;8.75;7.47;;;11.20;99.90;;;;;;6293987;22;19999;-77
2022/10/09 01:02:10;;;;;;;8.63;7.47;;;11.20;99.90;;;;;;6291838;22;20010;-77
2022/10/09 01:04:36;;;;;;;8.45;6.32;;;11.20;99.90;;;;;;6295915;22;20003;-77
2022/10/09 01:07:08;;;;;;;8.95;6.82;;;11.20;99.90;;;;;;6293080;22;20481;-77
2022/10/09 01:09:55;;;;;;;8.80;7.90;;;11.20;99.90;;;;;;6292657;22;20388;-77
2022/10/09 01:12:44;;;;;;;15.20;8.27;;;11.20;99.90;;;;;;6288509;22;20489;-77
2022/10/09 01:15:15;;;;;;;9.93;8.02;;;11.30;99.90;;;;;;6293869;22;20468;-76
2022/10/09 01:17:54;;;;;;;9.30;8.02;;;11.30;99.90;;;;;;6293684;22;20011;-66
2022/10/09 01:20:50;;;;;;;9.27;8.27;;;11.30;99.90;;;;;;6294221;22;20755;-66
2022/10/09 01:23:39;;;;;;;7.40;6.68;;;11.40;99.90;;;;;;6296535;22;20467;-66
2022/10/09 01:26:24;;;;;;;10.25;7.57;;;11.50;99.90;;;;;;6293310;22;20026;-66
2022/10/09 01:28:56;;;;;;;7.82;7.03;;;11.50;99.90;;;;;;6295813;22;20520;-66
2022/10/09 01:31:25;;;;;;;10.23;7.78;;;11.50;99.90;;;;;;6292508;22;20081;-66
2022/10/09 01:33:51;;;;;;;13.90;7.72;;;11.40;99.90;;;;;;6296795;22;20082;-67
2022/10/09 01:36:17;;;;;;;11.48;7.18;;;11.30;99.90;;;;;;6295701;22;19999;-67
2022/10/09 01:38:44;;;;;;;9.35;8.18;;;11.20;99.90;;;;;;6293244;22;20255;-66
2022/10/09 01:41:10;;;;;;;8.98;8.07;;;11.10;99.90;;;;;;6295480;22;20085;-66
2022/10/09 01:43:35;;;;;;;9.07;8.07;;;11.00;99.90;;;;;;6294650;22;20041;-66
2022/10/09 01:46:21;;;;;;;10.82;7.82;;;11.00;99.90;;;;;;6293761;22;20073;-66
2022/10/09 01:48:54;;;;;;;9.10;7.60;;;11.00;99.90;;;;;;6294445;22;20012;-66
2022/10/09 01:51:23;;;;;;;8.98;7.85;;;11.10;99.90;;;;;;6294604;22;20003;-66
2022/10/09 01:53:53;;;;;;;9.27;7.40;;;11.10;99.90;;;;;;6296501;22;20762;-66
2022/10/09 01:56:23;;;;;;;8.02;6.82;;;11.10;99.90;;;;;;6294816;22;20007;-67
2022/10/09 01:58:55;;;;;;;8.13;7.28;;;11.20;99.90;;;;;;6296322;22;20003;-67
2022/10/09 02:01:30;;;;;;;9.68;7.53;;;11.20;99.90;;;;;;6292724;22;20007;-66
2022/10/09 02:03:59;;;;;;;7.63;6.90;;;11.20;99.90;;;;;;6294576;22;20070;-66
2022/10/09 02:06:27;;;;;;;8.00;7.20;;;11.20;99.90;;;;;;6293010;22;20011;-66
2022/10/09 02:08:54;;;;;;;9.27;7.05;;;11.30;99.90;;;;;;6291932;22;20026;-65
2022/10/09 02:11:23;;;;;;;9.15;7.53;;;11.50;99.90;;;;;;6292575;22;20092;-66
2022/10/09 02:13:51;;;;;;;17.08;13.65;;;11.60;99.90;;;;;;6293709;22;20336;-66
2022/10/09 02:16:36;;;;;;;20.85;15.57;;;11.60;99.90;;;;;;6292125;22;20034;-66
2022/10/09 02:19:27;;;;;;;15.63;9.75;;;11.60;99.90;;;;;;6294328;22;20061;-66
2022/10/09 02:22:06;;;;;;;9.45;7.80;;;11.70;99.90;;;;;;6294612;22;20038;-66
2022/10/09 02:24:32;;;;;;;10.57;7.07;;;11.70;99.90;;;;;;6294359;22;20010;-66
2022/10/09 02:26:58;;;;;;;9.38;6.88;;;11.60;99.90;;;;;;6293802;22;20195;-66
2022/10/09 02:29:24;;;;;;;10.00;7.35;;;11.50;99.90;;;;;;6294334;22;20111;-66
2022/10/09 02:31:50;;;;;;;7.47;6.20;;;11.60;99.90;;;;;;6240933;22;20253;-76
2022/10/09 02:34:18;;;;;;;7.18;6.47;;;11.50;99.90;;;;;;6296159;22;20139;-77
2022/10/09 02:36:44;;;;;;;11.60;7.13;;;11.40;99.90;;;;;;6292582;22;19999;-77
2022/10/09 02:39:09;;;;;;;8.00;6.50;;;11.50;99.90;;;;;;6294488;22;20008;-77
2022/10/09 02:41:35;;;;;;;7.97;6.68;;;11.50;99.90;;;;;;6294959;22;20248;-77
2022/10/09 02:44:02;;;;;;;7.25;6.03;;;11.50;99.90;;;;;;6295425;22;20002;-77
2022/10/09 02:46:28;;;;;;;9.35;7.30;;;11.50;99.90;;;;;;6293233;22;20075;-77
2022/10/09 02:48:54;;;;;;;7.90;7.20;;;11.70;99.90;;;;;;6294844;22;20181;-77
2022/10/09 02:51:19;;;;;;;8.43;7.63;;;11.80;99.90;;;;;;6291693;22;20078;-77
2022/10/09 02:53:45;;;;;;;7.65;6.93;;;12.00;99.90;;;;;;6295352;22;20004;-78
2022/10/09 02:56:11;;;;;;;9.95;8.55;;;12.10;99.90;;;;;;6294693;22;20065;-78
2022/10/09 02:58:38;;;;;;;8.77;6.80;;;12.20;99.90;;;;;;6268238;22;20014;-76
2022/10/09 03:01:04;;;;;;;6.60;5.88;;;12.30;99.90;;;;;;6294037;22;20010;-76
2022/10/09 03:03:30;;;;;;;7.13;6.00;;;12.20;99.90;;;;;;6294704;22;19999;-77
2022/10/09 03:06:23;;;;;;;7.57;6.20;;;12.10;99.90;;;;;;6294670;22;20025;-77
2022/10/09 03:08:50;;;;;;;7.68;6.00;;;12.10;99.90;;;;;;6287048;22;20019;-77
2022/10/09 03:11:18;;;;;;;8.80;6.20;;;12.00;99.90;;;;;;6296207;22;20008;-77
2022/10/09 03:13:44;;;;;;;8.90;6.28;;;11.90;99.90;;;;;;6295177;22;20616;-77
2022/10/09 03:16:19;;;;;;;8.27;6.10;;;12.00;99.90;;;;;;6293323;22;20003;-77
2022/10/09 03:18:45;;;;;;;7.18;6.45;;;12.00;99.90;;;;;;6294778;22;20114;-76
2022/10/09 03:21:14;;;;;;;7.38;6.68;;;12.10;99.90;;;;;;6295421;22;20030;-77
2022/10/09 03:23:40;;;;;;;7.60;6.90;;;12.10;99.90;;;;;;6290095;22;20004;-77
2022/10/09 03:26:09;;;;;;;7.47;6.13;;;12.10;99.90;;;;;;6294674;22;19999;-77
2022/10/09 03:28:35;;;;;;;6.93;6.07;;;12.10;99.90;;;;;;6264394;22;20019;-77
2022/10/09 03:31:01;;;;;;;7.45;5.70;;;12.10;99.90;;;;;;6293852;22;20027;-77
2022/10/09 03:33:27;;;;;;;8.77;5.75;;;12.20;99.90;;;;;;6295219;22;20017;-77
2022/10/09 03:35:53;;;;;;;8.88;6.18;;;12.20;99.90;;;;;;6293598;22;20086;-76
2022/10/09 03:38:18;;;;;;;11.60;6.90;;;12.20;99.90;;;;;;6296617;22;20494;-77
2022/10/09 03:40:44;;;;;;;7.70;7.00;;;12.20;99.90;;;;;;6291444;22;20425;-76
2022/10/09 03:43:10;;;;;;;7.13;6.43;;;12.30;99.90;;;;;;6293542;22;20085;-76
2022/10/09 03:45:42;;;;;;;8.93;8.00;;;12.30;99.90;;;;;;6289803;22;20070;-77
2022/10/09 03:48:09;;;;;;;8.88;7.60;;;12.40;99.90;;;;;;6267817;22;20479;-66
2022/10/09 03:50:37;;;;;;;8.48;7.70;;;12.50;99.90;;;;;;6293419;22;19999;-66
2022/10/09 03:53:03;;;;;;;9.13;8.32;;;12.50;99.90;;;;;;6295768;22;20003;-66
2022/10/09 03:55:28;;;;;;;9.40;8.00;;;12.60;99.90;;;;;;6292277;22;20320;-66
2022/10/09 03:57:54;;;;;;;7.05;6.18;;;12.60;99.90;;;;;;6293246;22;20546;-66
2022/10/09 04:00:19;;;;;;;7.97;7.15;;;12.60;99.90;;;;;;6292714;22;20025;-65
2022/10/09 04:02:45;;;;;;;8.10;7.20;;;12.50;99.90;;;;;;6294936;22;20570;-66
2022/10/09 04:05:11;;;;;;;7.70;6.90;;;12.60;99.90;;;;;;6291990;22;20332;-76
2022/10/09 04:07:36;;;;;;;8.48;7.70;;;12.50;99.90;;;;;;6291780;22;20006;-76
2022/10/09 04:10:03;;;;;;;11.27;8.63;;;12.60;99.90;;;;;;6287785;22;20011;-76
2022/10/09 04:12:28;;;;;;;10.10;9.18;;;12.60;99.90;;;;;;6291808;22;20010;-76
2022/10/09 04:14:54;;;;;;;9.57;8.57;;;12.70;99.90;;;;;;6288831;22;20189;-77
2022/10/09 04:17:19;;;;;;;10.70;9.48;;;12.80;99.90;;;;;;6295371;22;20576;-77
2022/10/09 04:19:45;;;;;;;7.93;6.82;;;12.90;99.90;;;;;;6293336;22;20010;-77
2022/10/09 04:22:10;;;;;;;7.60;6.80;;;12.80;99.90;;;;;;6294567;22;20424;-77
2022/10/09 04:24:36;;;;;;;7.68;6.88;;;12.80;99.90;;;;;;6292243;22;20113;-77
2022/10/09 04:27:01;;;;;;;11.10;8.43;;;12.70;99.90;;;;;;6294083;22;20026;-76
2022/10/09 04:29:27;;;;;;;8.75;7.95;;;12.60;99.90;;;;;;6293883;22;20144;-76
2022/10/09 04:31:53;;;;;;;8.48;7.57;;;12.60;99.90;;;;;;6291938;22;20080;-77
2022/10/09 04:34:18;;;;;;;9.60;8.75;;;12.50;99.90;;;;;;6290660;22;20015;-78
2022/10/09 04:36:44;;;;;;;9.95;8.68;;;12.60;99.90;;;;;;6293876;22;20080;-78
2022/10/09 04:39:09;;;;;;;9.38;8.48;;;12.70;99.90;;;;;;6292745;22;20146;-78
2022/10/09 04:41:36;;;;;;;8.90;8.10;;;12.80;99.90;;;;;;6290572;22;20057;-78
2022/10/09 04:44:02;;;;;;;8.77;7.95;;;12.90;99.90;;;;;;6264428;22;20467;-77
2022/10/09 04:46:27;;;;;;;9.70;8.80;;;13.00;99.90;;;;;;6286682;22;20027;-77
2022/10/09 04:48:53;;;;;;;10.93;8.43;;;13.10;99.90;;;;;;6294070;22;20396;-77
2022/10/09 04:51:19;;;;;;;10.85;8.73;;;13.20;99.90;;;;;;6297054;22;20030;-78
2022/10/09 04:53:44;;;;;;;12.50;9.20;;;13.20;99.90;;;;;;6296397;22;20005;-78
2022/10/09 04:56:13;;;;;;;10.25;9.02;;;13.30;99.90;;;;;;6267144;22;20000;-78
2022/10/09 04:58:39;;;;;;;11.02;9.77;;;13.30;99.90;;;;;;6292981;22;20007;-76
2022/10/09 05:01:23;;;;;;;10.27;9.13;;;13.30;99.90;;;;;;6295756;22;20014;-78
2022/10/09 05:03:49;;;;;;;9.95;8.93;;;13.30;99.90;;;;;;6293459;22;20034;-67
2022/10/09 05:06:16;;;;;;;9.05;8.05;;;13.30;99.90;;;;;;6295939;22;20007;-67
2022/10/09 05:08:42;;;;;;;9.15;8.35;;;13.50;99.90;;;;;;6295389;22;20019;-67
2022/10/09 05:11:16;;;;;;;11.25;7.70;;;13.60;99.90;;;;;;6294477;22;20000;-67
2022/10/09 05:13:44;;;;;;;8.70;7.60;;;13.70;99.90;;;;;;6290576;22;20003;-66
2022/10/09 05:16:12;;;;;;;8.98;8.07;;;13.80;99.90;;;;;;6293926;22;20034;-67
2022/10/09 05:18:46;;;;;;;8.75;7.85;;;13.90;99.90;;;;;;6268218;22;20104;-67
2022/10/09 05:21:13;;;;;;;10.95;8.38;;;14.00;99.90;;;;;;6295313;22;20003;-67
2022/10/09 05:23:39;;;;;;;11.18;7.95;;;14.00;99.90;;;;;;6292518;22;20435;-66
2022/10/09 05:26:11;;;;;;;8.35;7.22;;;14.00;99.90;;;;;;6294828;22;20057;-67
2022/10/09 05:28:37;;;;;;;8.55;7.65;;;14.00;99.90;;;;;;6291310;22;20011;-67
2022/10/09 05:31:04;;;;;;;8.55;7.32;;;14.00;99.90;;;;;;6294335;22;20717;-67
2022/10/09 05:33:30;;;;;;;8.75;7.35;;;14.00;99.90;;;;;;6294891;22;20134;-66
2022/10/09 05:36:01;;;;;;;8.10;7.30;;;14.00;99.90;;;;;;6295741;22;20496;-67
2022/10/09 05:38:27;;;;;;;8.20;6.80;;;14.00;99.90;;;;;;6292471;22;20049;-70
2022/10/09 05:40:58;;;;;;;7.90;6.72;;;14.00;99.90;;;;;;6293564;22;20025;-70
2022/10/09 05:43:26;;;;;;;7.75;6.13;;;14.10;99.90;;;;;;6291593;22;20015;-69
2022/10/09 05:45:52;;;;;;;9.13;6.45;;;14.20;99.90;;;;;;6293742;22;20003;-69
2022/10/09 05:48:18;;;;;;;9.45;6.78;;;14.40;99.90;;;;;;6294936;22;20015;-70
2022/10/09 05:50:44;;;;;;;10.90;6.60;;;14.50;99.90;;;;;;6292363;22;20034;-68
2022/10/09 05:53:09;;;;;;;7.55;6.05;;;14.60;99.90;;;;;;6294383;22;20052;-71
2022/10/09 05:55:35;;;;;;;9.07;5.68;;;14.60;99.90;;;;;;6293909;22;19999;-67
2022/10/09 05:58:00;;;;;;;7.63;5.50;;;14.70;99.90;;;;;;6293852;22;20003;-67
2022/10/09 06:00:26;;;;;;;12.63;5.75;;;14.80;99.90;;;;;;6291821;22;20007;-67
2022/10/09 06:02:52;;;;;;;9.88;6.40;;;14.90;99.90;;;;;;6294563;22;20078;-78
2022/10/09 06:05:17;;;;;;;7.65;6.47;;;15.00;99.90;;;;;;6293374;22;20450;-81
2022/10/09 06:07:45;;;;;;;10.40;6.18;;;15.00;99.90;;;;;;6293562;22;20003;-79
2022/10/09 06:10:11;;;;;;;11.65;6.47;;;15.00;99.90;;;;;;6295646;22;20484;-78
2022/10/09 06:12:36;;;;;;;6.72;5.90;;;15.10;99.90;;;;;;6295388;22;20005;-78
2022/10/09 06:15:02;;;;;;;7.88;5.88;;;15.10;99.90;;;;;;6292526;22;20010;-78
2022/10/09 06:17:28;;;;;;;10.20;6.50;;;15.10;99.90;;;;;;6293250;22;20047;-79
2022/10/09 06:19:54;;;;;;;8.05;5.97;;;15.20;99.90;;;;;;6292874;22;20009;-76
2022/10/09 06:22:19;;;;;;;7.65;5.28;;;15.20;99.90;;;;;;6293771;22;20003;-68
2022/10/09 06:24:45;;;;;;;6.85;5.85;;;15.20;99.90;;;;;;6292157;22;20022;-67
2022/10/09 06:27:12;;;;;;;6.32;5.13;;;15.30;99.90;;;;;;6292877;22;20011;-68
2022/10/09 06:29:38;;;;;;;8.13;5.68;;;15.20;99.90;;;;;;6293931;22;19999;-64
2022/10/09 06:32:04;;;;;;;9.57;5.70;;;15.30;99.90;;;;;;6291988;22;20068;-64
2022/10/09 06:34:29;;;;;;;7.88;5.28;;;15.40;99.90;;;;;;6292669;22;20046;-69
2022/10/09 06:36:55;;;;;;;8.63;6.05;;;15.50;99.90;;;;;;6291903;22;20002;-69
2022/10/09 06:39:21;;;;;;;7.28;5.55;;;15.60;99.90;;;;;;6290729;22;20011;-70
2022/10/09 06:41:47;;;;;;;6.75;5.05;;;15.70;99.90;;;;;;6292307;22;20337;-67
2022/10/09 06:44:15;;;;;;;8.68;5.15;;;15.80;99.90;;;;;;6293557;22;20007;-67
2022/10/09 06:46:41;;;;;;;8.77;5.70;;;15.90;99.90;;;;;;6292836;22;20010;-68
2022/10/09 06:49:09;;;;;;;11.68;5.32;;;15.90;99.90;;;;;;6294059;22;20015;-69
2022/10/09 06:51:36;;;;;;;7.18;4.80;;;16.10;99.90;;;;;;6289707;22;20166;-69
2022/10/09 06:54:06;;;;;;;5.90;4.45;;;16.20;99.90;;;;;;6292726;22;20086;-67
2022/10/09 06:56:32;;;;;;;7.78;4.80;;;16.30;99.90;;;;;;6294829;22;20095;-67
2022/10/09 06:59:02;;;;;;;6.57;4.60;;;16.50;99.90;;;;;;6293668;22;20428;-67
2022/10/09 07:01:30;;;;;;;7.45;4.88;;;16.60;99.90;;;;;;6291305;22;20106;-69
2022/10/09 07:03:59;;;;;;;5.18;4.45;;;16.70;99.90;;;;;;6294090;22;20115;-68
2022/10/09 07:06:30;;;;;;;6.93;5.10;;;16.80;99.90;;;;;;6293908;22;20512;-68
2022/10/09 07:08:58;;;;;;;7.10;4.40;;;17.00;99.90;;;;;;6267045;22;20089;-68
2022/10/09 07:11:26;;;;;;;6.85;4.53;;;17.10;99.90;;;;;;6289468;22;20015;-68
2022/10/09 07:13:54;;;;;;;5.82;4.30;;;17.40;99.90;;;;;;6293470;22;20049;-68
2022/10/09 07:16:23;;;;;;;5.10;4.13;;;17.50;99.90;;;;;;6286759;22;20004;-67
2022/10/09 07:18:49;;;;;;;7.25;4.75;;;17.60;99.90;;;;;;6292015;22;20098;-67
2022/10/09 07:21:15;;;;;;;6.03;4.50;;;17.70;99.90;;;;;;6263148;22;20114;-68
2022/10/09 07:23:40;;;;;;;6.05;4.43;;;17.90;99.90;;;;;;6293601;22;19999;-68
2022/10/09 07:26:11;;;;;;;8.07;4.50;;;18.00;99.90;;;;;;6292365;22;20037;-68
2022/10/09 07:28:37;;;;;;;5.03;4.53;;;18.10;99.90;;;;;;6292133;22;20072;-68
2022/10/09 07:31:03;;;;;;;7.10;4.10;;;18.20;99.90;;;;;;6292283;22;20011;-68
2022/10/09 07:33:29;;;;;;;6.05;3.78;;;18.30;99.90;;;;;;6293390;22;20007;-68
2022/10/09 07:35:56;;;;;;;4.70;4.20;;;18.40;99.90;;;;;;6293321;22;20077;-68
2022/10/09 07:38:23;;;;;;;3.20;2.90;;;18.40;99.90;;;;;;6294517;22;20070;-80
2022/10/09 07:40:49;;;;;;;5.70;3.53;;;18.40;99.90;;;;;;6292229;22;20475;-80
2022/10/09 07:43:15;;;;;;;4.65;3.63;;;18.40;99.90;;;;;;6295130;22;20045;-80
2022/10/09 07:45:41;;;;;;;3.90;3.42;;;18.30;99.90;;;;;;6292726;22;20190;-80
2022/10/09 07:48:07;;;;;;;5.07;3.40;;;18.20;99.90;;;;;;6293796;22;20029;-82
2022/10/09 07:50:32;;;;;;;5.03;3.63;;;18.20;99.90;;;;;;6293096;22;20045;-79
2022/10/09 07:52:58;;;;;;;4.05;3.25;;;18.40;99.90;;;;;;6294024;22;20007;-81
2022/10/09 07:55:23;;;;;;;7.15;3.90;;;18.40;99.90;;;;;;6293388;22;20107;-70
2022/10/09 07:57:50;;;;;;;6.70;3.95;;;18.40;99.90;;;;;;6293674;22;20308;-72
2022/10/09 08:00:15;;;;;;;5.63;3.80;;;18.50;99.90;;;;;;6292826;22;20498;-69
2022/10/09 08:02:41;;;;;;;3.95;3.20;;;18.60;99.90;;;;;;6292774;22;20003;-70
2022/10/09 08:05:07;;;;;;;5.38;3.30;;;18.90;99.90;;;;;;6292302;22;20064;-70
2022/10/09 08:07:32;;;;;;;5.82;3.70;;;18.90;99.90;;;;;;6292531;22;20336;-69
2022/10/09 08:09:58;;;;;;;6.45;4.25;;;18.90;99.90;;;;;;6290809;22;20093;-70
2022/10/09 08:12:24;;;;;;;8.30;3.72;;;18.90;99.90;;;;;;6293383;22;20000;-70
2022/10/09 08:14:49;;;;;;;5.72;3.72;;;19.00;99.90;;;;;;6292899;22;20092;-69
2022/10/09 08:17:15;;;;;;;4.60;3.30;;;19.00;99.90;;;;;;6288754;22;20015;-70
2022/10/09 08:19:41;;;;;;;4.15;3.70;;;19.00;99.90;;;;;;6290782;22;20309;-70
2022/10/09 08:22:07;;;;;;;4.65;3.63;;;19.00;99.90;;;;;;6292574;22;20209;-70
2022/10/09 08:24:32;;;;;;;4.50;3.80;;;19.00;99.90;;;;;;6288568;22;20484;-70
2022/10/09 08:26:58;;;;;;;3.92;3.03;;;18.90;99.90;;;;;;6294518;22;20014;-70
2022/10/09 08:29:23;;;;;;;5.35;3.47;;;19.00;99.90;;;;;;6291401;22;20007;-69
2022/10/09 08:31:50;;;;;;;5.65;3.67;;;19.00;99.90;;;;;;6293330;22;20004;-69
2022/10/09 08:34:16;;;;;;;3.78;3.33;;;19.00;99.90;;;;;;6295379;22;20010;-69
2022/10/09 08:36:42;;;;;;;4.95;4.10;;;19.10;99.90;;;;;;6294772;22;20325;-70
2022/10/09 08:39:07;;;;;;;3.75;3.45;;;19.00;99.90;;;;;;6294157;22;20807;-69
2022/10/09 08:41:53;;;;;;;4.85;3.78;;;19.00;99.90;;;;;;6296077;22;20422;-69
2022/10/09 08:44:26;;;;;;;6.57;3.65;;;18.80;99.90;;;;;;6295172;22;20023;-71
2022/10/09 08:47:01;;;;;;;5.95;3.50;;;18.70;99.90;;;;;;6293406;22;20007;-70
2022/10/09 08:49:31;;;;;;;3.60;3.30;;;18.80;99.90;;;;;;6293855;22;20065;-71
2022/10/09 08:52:11;;;;;;;5.35;3.33;;;18.80;99.90;;;;;;6298226;22;20070;-71
2022/10/09 08:54:38;;;;;;;5.53;3.38;;;18.90;99.90;;;;;;6294662;22;20340;-73
2022/10/09 08:57:11;;;;;;;6.00;3.35;;;19.00;99.90;;;;;;6295294;22;20017;-73
2022/10/09 08:59:36;;;;;;;5.32;2.78;;;19.00;99.90;;;;;;6296613;22;20034;-74
2022/10/09 09:02:05;;;;;;;2.70;2.47;;;19.00;99.90;;;;;;6293494;22;19995;-74
2022/10/09 09:04:59;;;;;;;5.10;3.22;;;18.90;99.90;;;;;;6295894;22;20080;-74
2022/10/09 09:07:50;;;;;;;4.63;2.90;;;18.90;99.90;;;;;;6296895;22;20004;-74
2022/10/09 09:10:39;;;;;;;3.50;3.00;;;19.00;99.90;;;;;;6296481;22;20085;-74
2022/10/09 09:13:30;;;;;;;4.88;4.05;;;19.10;99.90;;;;;;6297340;22;20007;-85
2022/10/09 09:16:24;;;;;;;5.03;2.80;;;19.30;99.90;;;;;;6267726;22;19999;-79
2022/10/09 09:19:21;;;;;;;4.95;2.97;;;19.30;99.90;;;;;;6296431;22;20049;-79
2022/10/09 09:21:48;;;;;;;3.05;2.67;;;19.40;99.90;;;;;;6293314;22;20003;-79
2022/10/09 09:24:32;;;;;;;4.90;3.00;;;19.50;99.90;;;;;;6293816;22;20007;-81
2022/10/09 09:27:02;;;;;;;3.53;2.42;;;19.50;99.90;;;;;;6293447;22;20425;-82
2022/10/09 09:29:44;;;;;;;4.50;2.80;;;19.50;99.90;;;;;;6295210;22;20584;-83
2022/10/09 09:32:18;;;;;;;3.65;2.80;;;19.50;99.90;;;;;;6296104;22;20086;-81
2022/10/09 09:34:44;;;;;;;4.10;2.88;;;19.60;99.90;;;;;;6290095;22;20812;-85
2022/10/09 09:37:11;;;;;;;5.15;2.92;;;19.70;99.90;;;;;;6264226;22;20091;-83
2022/10/09 09:39:37;;;;;;;4.00;2.65;;;19.80;99.90;;;;;;6290876;22;20014;-83
2022/10/09 09:42:08;;;;;;;4.00;2.15;;;20.00;99.90;;;;;;6294599;22;20034;-83
2022/10/09 09:44:37;;;;;;;6.82;2.60;;;20.00;99.90;;;;;;6297146;22;20018;-85
2022/10/09 09:47:03;;;;;;;3.70;2.40;;;19.90;99.90;;;;;;6266167;22;20003;-86
2022/10/09 09:49:28;;;;;;;2.53;2.33;;;19.90;99.90;;;;;;6290828;22;20007;-86
2022/10/09 09:51:59;;;;;;;3.45;2.60;;;20.00;99.90;;;;;;6290881;22;20336;-68
2022/10/09 09:54:29;;;;;;;4.35;2.58;;;20.10;99.90;;;;;;6291773;22;20076;-67
2022/10/09 09:56:59;;;;;;;2.92;2.17;;;20.20;99.90;;;;;;6290809;22;20375;-69
2022/10/09 09:59:34;;;;;;;4.43;2.53;;;20.20;99.90;;;;;;6294449;22;19996;-69
2022/10/09 10:02:11;;;;;;;4.15;3.05;;;20.20;99.90;;;;;;6288596;22;20014;-69
2022/10/09 10:04:46;;;;;;;4.18;2.65;;;20.20;99.90;;;;;;6292192;22;20006;-69
2022/10/09 10:07:12;;;;;;;2.65;2.45;;;20.20;99.90;;;;;;6262113;22;20038;-69
2022/10/09 10:09:38;;;;;;;6.15;2.90;;;20.10;99.90;;;;;;6291140;22;20086;-70
2022/10/09 10:12:05;;;;;;;3.70;2.67;;;20.00;99.90;;;;;;6286637;22;20000;-70
2022/10/09 10:14:33;;;;;;;4.72;2.50;;;20.10;99.90;;;;;;6260754;22;20012;-69
2022/10/09 10:17:00;;;;;;;2.88;2.60;;;20.20;99.90;;;;;;6291338;22;20003;-69
2022/10/09 10:19:29;;;;;;;4.57;2.22;;;20.40;99.90;;;;;;6292363;22;20068;-70
2022/10/09 10:22:04;;;;;;;11.98;3.00;;;20.40;99.90;;;;;;6291483;22;20057;-69
2022/10/09 10:24:43;;;;;;;4.40;2.65;;;20.40;99.90;;;;;;6288357;22;20007;-70
2022/10/09 10:27:23;;;;;;;5.80;2.38;;;20.60;99.90;;;;;;6290238;22;20007;-69
2022/10/09 10:29:51;;;;;;;3.28;2.60;;;20.70;99.90;;;;;;6293650;22;20495;-70
2022/10/09 10:32:40;;;;;;;5.95;3.38;;;20.80;99.90;;;;;;6293254;22;20007;-69
2022/10/09 10:35:15;;;;;;;4.20;2.30;;;20.80;99.90;;;;;;6292620;22;20773;-70
2022/10/09 10:37:46;;;;;;;3.38;2.28;;;20.80;99.70;;;;;;6293872;22;20010;-70
2022/10/09 10:40:18;;;;;;;3.83;2.75;;;20.90;99.90;;;;;;6295863;22;20822;-70
2022/10/09 10:43:08;;;;;;;3.22;2.42;;;20.90;99.90;;;;;;6293704;22;20031;-70
2022/10/09 10:45:42;;;;;;;3.58;2.80;;;20.80;99.70;;;;;;6295060;22;20002;-70
2022/10/09 10:48:13;;;;;;;3.38;2.45;;;20.80;99.90;;;;;;6293899;22;20643;-69
2022/10/09 10:51:10;;;;;;;5.60;2.30;;;20.80;99.20;;;;;;6262663;22;20042;-69
2022/10/09 10:54:07;;;;;;;2.67;2.10;;;20.80;99.20;;;;;;6284423;22;20038;-69
2022/10/09 10:56:39;;;;;;;4.43;2.75;;;20.90;99.40;;;;;;6293520;22;20080;-68
2022/10/09 10:59:36;;;;;;;3.38;2.45;;;20.90;99.20;;;;;;6292818;22;20581;-68
2022/10/09 11:02:21;;;;;;;4.05;2.40;;;20.90;99.00;;;;;;6286722;22;19999;-68
2022/10/09 11:04:57;;;;;;;4.13;2.50;;;20.90;98.60;;;;;;6293592;22;20003;-70
2022/10/09 11:07:50;;;;;;;3.92;2.25;;;20.90;99.10;;;;;;6292008;22;20083;-68
2022/10/09 11:10:34;;;;;;;5.13;2.55;;;20.90;97.80;;;;;;6293710;22;20014;-69
2022/10/09 11:13:08;;;;;;;2.72;2.22;;;21.00;97.30;;;;;;6290650;22;19999;-68
2022/10/09 11:15:48;;;;;;;3.45;2.22;;;21.10;98.00;;;;;;6289807;22;20003;-68
2022/10/09 11:18:57;;;;;;;2.33;2.13;;;21.10;96.10;;;;;;6260729;22;20038;-69
2022/10/09 11:21:26;;;;;;;3.17;2.28;;;21.10;96.30;;;;;;6288592;22;20094;-69
2022/10/09 11:24:27;;;;;;;5.15;2.00;;;21.10;96.30;;;;;;6289899;22;19999;-68
2022/10/09 11:27:11;;;;;;;4.68;1.98;;;21.00;95.60;;;;;;6135934;23;20005;-78
2022/10/09 11:29:53;;;;;;;4.65;2.00;;;21.00;95.20;;;;;;6255715;22;20093;-78
2022/10/09 11:32:42;;;;;;;2.70;2.10;;;21.00;95.80;;;;;;6291840;22;20007;-78
2022/10/09 11:35:11;;;;;;;4.78;2.33;;;21.00;95.90;;;;;;6295277;22;20055;-78
2022/10/09 11:37:40;;;;;;;5.00;2.92;;;21.00;95.90;;;;;;6291785;22;20089;-78
2022/10/09 11:40:30;;;;;;;11.07;2.50;;;21.10;97.20;;;;;;6290154;22;20006;-77
2022/10/09 11:43:08;;;;;;;5.28;2.25;;;21.10;95.80;;;;;;6292139;22;20007;-78
2022/10/09 11:45:59;;;;;;;3.08;2.28;;;21.20;96.50;;;;;;6290761;22;20007;-78
2022/10/09 11:48:52;;;;;;;5.85;2.25;;;21.30;96.00;;;;;;6292220;22;20045;-78
2022/10/09 11:51:23;;;;;;;4.07;2.10;;;21.30;96.30;;;;;;6292382;22;19999;-76
2022/10/09 11:53:52;;;;;;;2.67;1.95;;;21.40;96.00;;;;;;6292095;22;20012;-77
2022/10/09 11:56:22;;;;;;;4.43;2.38;;;21.30;95.80;;;;;;6294306;22;20003;-77
2022/10/09 11:59:20;;;;;;;3.22;2.10;;;21.30;94.90;;;;;;6291700;22;20345;-76
2022/10/09 12:01:46;;;;;;;3.58;2.15;;;21.30;93.50;;;;;;6288711;22;20072;-76
2022/10/09 12:04:12;;;;;;;2.92;2.00;;;21.30;93.80;;;;;;6288987;22;20629;-74
2022/10/09 12:06:50;;;;;;;3.60;1.92;;;21.30;91.90;;;;;;6289316;22;20010;-74
2022/10/09 12:09:34;;;;;;;2.55;1.80;;;21.40;92.60;;;;;;6261421;22;20645;-73
2022/10/09 12:12:06;;;;;;;3.00;2.28;;;21.50;92.50;;;;;;6280471;22;20066;-76
2022/10/09 12:14:32;;;;;;;;;;;21.50;93.80;;;;;;6285066;22;20004;-76
2022/10/09 12:16:58;;;;;;;6.53;2.22;;;21.50;93.40;;;;;;6283249;22;20232;-81
2022/10/09 12:19:38;;;;;;;2.28;1.70;;;21.40;92.80;;;;;;6288909;22;20017;-83
2022/10/09 12:22:06;;;;;;;2.47;2.10;;;21.40;92.20;;;;;;6290821;22;20003;-86
2022/10/09 12:24:41;;;;;;;3.25;1.90;;;21.30;91.60;;;;;;6291103;22;20400;-67
2022/10/09 12:27:08;;;;;;;2.70;1.95;;;21.20;92.60;;;;;;6281879;22;20003;-66
2022/10/09 12:29:53;;;;;;;2.25;2.00;;;21.30;93.40;;;;;;6289702;22;20015;-67
2022/10/09 12:32:27;;;;;;;5.28;1.90;;;21.30;93.30;;;;;;6292795;22;20003;-68
2022/10/09 12:34:55;;;;;;;10.13;2.50;;;21.30;92.30;;;;;;6292044;22;20003;-72
2022/10/09 12:37:29;;;;;;;4.53;1.90;;;21.50;92.90;;;;;;6291693;22;20597;-68
2022/10/09 12:40:13;;;;;;;3.80;2.20;;;21.50;92.70;;;;;;6296202;22;20013;-69
2022/10/09 12:42:39;;;;;;;10.07;2.10;;;21.50;92.70;;;;;;6296133;22;20008;-66
2022/10/09 12:45:05;;;;;;;11.27;2.40;;;21.60;92.50;;;;;;6295875;22;20006;-69
2022/10/09 12:47:34;;;;;;;4.53;2.00;;;21.60;92.00;;;;;;6293413;22;20421;-69
2022/10/09 12:50:22;;;;;;;7.35;2.00;;;21.70;92.30;;;;;;6295581;22;20007;-67
2022/10/09 12:52:56;;;;;;;2.70;2.03;;;21.70;92.40;;;;;;6268632;22;20030;-67
2022/10/09 12:55:34;;;;;;;2.72;1.80;;;21.70;91.90;;;;;;6295799;22;20044;-67
2022/10/09 12:58:07;;;;;;;3.15;2.20;;;21.70;90.60;;;;;;6296371;22;20094;-68
2022/10/09 13:00:34;;;;;;;3.33;2.20;;;21.80;91.30;;;;;;6296686;22;20320;-67
2022/10/09 13:03:00;;;;;;;1.98;1.67;;;21.80;92.10;;;;;;6293081;22;19999;-67